createdAt,value
2018-01-23T00:00:44.699Z,70.60
2018-01-23T00:03:11.087Z,66.67
2018-01-23T00:05:37.558Z,67.50
2018-01-23T00:08:04.256Z,59.77
2018-01-23T00:10:30.838Z,55.77
2018-01-23T00:12:57.542Z,72.13
2018-01-23T00:15:23.912Z,67.90
2018-01-23T00:17:50.341Z,59.30
2018-01-23T00:20:18.415Z,75.03
2018-01-23T00:22:44.812Z,70.83
2018-01-23T00:25:11.634Z,74.33
2018-01-23T00:27:37.983Z,69.13
2018-01-23T00:30:04.428Z,63.37
2018-01-23T00:32:31.611Z,59.17
2018-01-23T00:34:58.076Z,60.87
2018-01-23T00:37:24.416Z,56.50
2018-01-23T00:39:50.946Z,72.10
2018-01-23T00:42:17.307Z,59.37
2018-01-23T00:44:43.781Z,65.03
2018-01-23T00:47:10.654Z,61.83
2018-01-23T00:49:37.377Z,72.07
2018-01-23T00:52:03.820Z,65.67
2018-01-23T00:54:30.237Z,63.33
2018-01-23T00:56:56.686Z,61.67
2018-01-23T00:59:23.715Z,65.37
2018-01-23T01:01:50.866Z,61.57
2018-01-23T01:04:17.901Z,59.30
2018-01-23T01:06:45.157Z,61.53
2018-01-23T01:09:11.644Z,68.53
2018-01-23T01:11:38.536Z,61.97
2018-01-23T01:14:05.799Z,60.53
2018-01-23T01:16:32.314Z,57.40
2018-01-23T01:18:58.692Z,55.50
2018-01-23T01:21:25.149Z,72.50
2018-01-23T01:23:51.641Z,72.63
2018-01-23T01:26:18.386Z,62.57
2018-01-23T01:28:44.793Z,73.80
2018-01-23T01:31:12.353Z,65.60
2018-01-23T01:33:38.947Z,68.70
2018-01-23T01:36:05.476Z,64.67
2018-01-23T01:38:32.006Z,66.07
2018-01-23T01:40:58.797Z,60.47
2018-01-23T01:43:25.480Z,57.83
2018-01-23T01:45:52.093Z,65.60
2018-01-23T01:48:19.104Z,60.43
2018-01-23T01:50:46.731Z,64.57
2018-01-23T01:53:13.129Z,66.43
2018-01-23T01:55:39.833Z,69.07
2018-01-23T01:58:07.729Z,65.10
2018-01-23T02:00:34.925Z,64.23
2018-01-23T02:03:01.340Z,59.23
2018-01-23T02:05:27.946Z,65.30
2018-01-23T02:07:54.494Z,59.63
2018-01-23T02:10:21.022Z,66.37
2018-01-23T02:12:47.840Z,58.10
2018-01-23T02:15:15.080Z,60.10
2018-01-23T02:17:41.922Z,59.17
2018-01-23T02:20:08.362Z,67.37
2018-01-23T02:22:35.136Z,62.10
2018-01-23T02:25:01.648Z,54.77
2018-01-23T02:27:28.113Z,65.83
2018-01-23T02:29:55.966Z,63.60
2018-01-23T02:32:22.827Z,68.70
2018-01-23T02:34:49.685Z,68.13
2018-01-23T02:37:16.909Z,57.80
2018-01-23T02:39:44.084Z,74.50
2018-01-23T02:42:10.585Z,67.27
2018-01-23T02:44:37.053Z,63.37
2018-01-23T02:47:03.436Z,71.37
2018-01-23T02:49:30.772Z,76.47
2018-01-23T02:51:57.253Z,70.93
2018-01-23T02:54:23.756Z,66.90
2018-01-23T02:56:50.191Z,77.47
2018-01-23T02:59:16.700Z,76.27
2018-01-23T03:01:43.113Z,74.77
2018-01-23T03:04:09.530Z,67.57
2018-01-23T03:06:36.020Z,69.87
2018-01-23T03:09:02.461Z,64.00
2018-01-23T03:11:28.925Z,70.17
2018-01-23T03:13:55.358Z,75.23
2018-01-23T03:16:21.752Z,79.50
2018-01-23T03:18:49.874Z,72.80
2018-01-23T03:21:16.438Z,81.20
2018-01-23T03:23:42.886Z,68.67
2018-01-23T03:26:09.666Z,72.13
2018-01-23T03:28:36.183Z,75.27
2018-01-23T03:31:02.718Z,72.20
2018-01-23T03:33:29.182Z,73.73
2018-01-23T03:35:56.419Z,70.93
2018-01-23T03:38:22.824Z,86.53
2018-01-23T03:40:49.193Z,74.33
2018-01-23T03:43:15.564Z,80.43
2018-01-23T03:45:42.676Z,74.43
2018-01-23T03:48:09.794Z,86.03
2018-01-23T03:50:36.598Z,76.70
2018-01-23T03:53:02.967Z,82.80
2018-01-23T03:55:29.398Z,84.80
2018-01-23T03:57:57.519Z,69.97
2018-01-23T04:00:24.674Z,81.57
2018-01-23T04:02:51.618Z,82.70
2018-01-23T04:05:18.052Z,89.00
2018-01-23T04:07:44.490Z,80.37
2018-01-23T04:10:11.336Z,77.93
2018-01-23T04:12:37.790Z,70.87
2018-01-23T04:15:04.232Z,59.00
2018-01-23T04:17:30.759Z,68.40
2018-01-23T04:19:57.300Z,75.67
2018-01-23T04:22:24.471Z,59.83
2018-01-23T04:24:50.859Z,72.40
2018-01-23T04:27:17.334Z,75.10
2018-01-23T04:29:43.737Z,86.30
2018-01-23T04:32:11.834Z,74.10
2018-01-23T04:34:38.290Z,66.23
2018-01-23T04:37:04.661Z,71.20
2018-01-23T04:39:31.514Z,66.00
2018-01-23T04:41:58.358Z,68.53
2018-01-23T04:44:24.760Z,84.53
2018-01-23T04:46:51.325Z,62.63
2018-01-23T04:49:17.772Z,68.80
2018-01-23T04:51:45.084Z,73.13
2018-01-23T04:54:11.437Z,59.93
2018-01-23T04:56:37.875Z,69.70
2018-01-23T04:59:04.236Z,56.43
2018-01-23T05:01:30.680Z,71.77
2018-01-23T05:03:57.142Z,73.10
2018-01-23T05:06:23.527Z,76.03
2018-01-23T05:08:50.650Z,65.87
2018-01-23T05:11:17.185Z,86.47
2018-01-23T05:13:44.346Z,66.53
2018-01-23T05:16:10.709Z,67.40
2018-01-23T05:18:37.826Z,76.67
2018-01-23T05:21:04.919Z,77.53
2018-01-23T05:23:31.396Z,82.87
2018-01-23T05:25:57.911Z,83.17
2018-01-23T05:28:24.289Z,73.37
2018-01-23T05:30:51.142Z,69.93
2018-01-23T05:33:18.377Z,67.93
2018-01-23T05:35:44.860Z,76.23
2018-01-23T05:38:11.404Z,68.87
2018-01-23T05:40:38.729Z,79.87
2018-01-23T05:43:06.897Z,77.50
2018-01-23T05:45:33.677Z,83.83
2018-01-23T05:48:00.518Z,77.43
2018-01-23T05:50:27.289Z,83.53
2018-01-23T05:52:54.617Z,80.33
2018-01-23T05:55:21.318Z,72.87
2018-01-23T05:57:49.557Z,79.13
2018-01-23T06:00:16.283Z,83.30
2018-01-23T06:02:42.869Z,77.43
2018-01-23T06:05:09.466Z,80.77
2018-01-23T06:07:37.563Z,77.50
2018-01-23T06:10:04.610Z,73.00
2018-01-23T06:12:31.050Z,77.33
2018-01-23T06:14:58.189Z,68.67
2018-01-23T06:17:25.292Z,77.13
2018-01-23T06:19:52.500Z,74.20
2018-01-23T06:22:18.931Z,75.87
2018-01-23T06:24:46.154Z,62.00
2018-01-23T06:27:12.570Z,75.53
2018-01-23T06:29:39.661Z,79.83
2018-01-23T06:32:06.505Z,90.20
2018-01-23T06:34:32.875Z,69.53
2018-01-23T06:36:59.694Z,73.70
2018-01-23T06:39:26.185Z,70.53
2018-01-23T06:41:53.319Z,74.80
2018-01-23T06:44:19.837Z,64.90
2018-01-23T06:46:47.105Z,80.13
2018-01-23T06:49:14.458Z,76.53
2018-01-23T06:51:40.825Z,70.27
2018-01-23T06:54:07.994Z,72.90
2018-01-23T06:56:36.084Z,67.43
2018-01-23T06:59:02.571Z,57.27
2018-01-23T07:01:29.418Z,64.30
2018-01-23T07:03:56.573Z,55.83
2018-01-23T07:06:23.710Z,58.93
2018-01-23T07:08:50.872Z,75.63
2018-01-23T07:11:17.300Z,74.73
2018-01-23T07:13:43.740Z,70.23
2018-01-23T07:16:10.988Z,67.20
2018-01-23T07:18:37.552Z,75.43
2018-01-23T07:21:04.409Z,65.00
2018-01-23T07:23:30.858Z,62.40
2018-01-23T07:25:57.221Z,66.30
2018-01-23T07:28:23.813Z,68.70
2018-01-23T07:30:50.331Z,70.80
2018-01-23T07:33:16.735Z,59.97
2018-01-23T07:35:43.166Z,70.87
2018-01-23T07:38:10.367Z,61.23
2018-01-23T07:40:37.235Z,63.67
2018-01-23T07:43:04.114Z,56.60
2018-01-23T07:45:31.868Z,62.10
2018-01-23T07:47:59.019Z,64.57
2018-01-23T07:50:25.840Z,63.40
2018-01-23T07:52:52.310Z,66.60
2018-01-23T07:55:18.870Z,65.77
2018-01-23T07:57:46.067Z,71.90
2018-01-23T08:00:12.476Z,69.33
2018-01-23T08:02:38.824Z,70.60
2018-01-23T08:05:05.212Z,63.43
2018-01-23T08:07:32.004Z,59.70
2018-01-23T08:09:59.204Z,61.80
2018-01-23T08:12:26.297Z,61.73
2018-01-23T08:14:52.762Z,69.10
2018-01-23T08:17:19.115Z,63.07
2018-01-23T08:19:45.469Z,64.93
2018-01-23T08:22:12.617Z,59.27
2018-01-23T08:24:39.039Z,63.37
2018-01-23T08:27:05.415Z,53.33
2018-01-23T08:29:31.797Z,66.13
2018-01-23T08:31:58.198Z,56.57
2018-01-23T08:34:24.596Z,67.70
2018-01-23T08:36:51.380Z,63.17
2018-01-23T08:39:17.873Z,61.53
2018-01-23T08:41:44.250Z,63.17
2018-01-23T08:44:11.007Z,68.07
2018-01-23T08:46:37.971Z,67.90
2018-01-23T08:49:04.422Z,54.00
2018-01-23T08:51:30.793Z,57.20
2018-01-23T08:53:57.201Z,45.97
2018-01-23T08:56:25.361Z,52.90
2018-01-23T08:58:51.756Z,30.83
2018-01-23T09:01:18.157Z,49.53
2018-01-23T09:03:44.586Z,57.83
2018-01-23T09:06:11.094Z,47.10
2018-01-23T09:08:37.974Z,72.07
2018-01-23T09:11:05.072Z,51.93
2018-01-23T09:13:32.746Z,64.23
2018-01-23T09:15:59.168Z,60.87
2018-01-23T09:18:25.737Z,63.67
2018-01-23T09:20:52.174Z,62.67
2018-01-23T09:23:18.681Z,63.40
2018-01-23T09:25:45.572Z,56.93
2018-01-23T09:28:13.292Z,61.37
2018-01-23T09:30:42.478Z,67.70
2018-01-23T09:33:09.008Z,66.77
2018-01-23T09:35:35.769Z,59.40
2018-01-23T09:38:02.116Z,61.70
2018-01-23T09:40:29.272Z,57.90
2018-01-23T09:42:55.709Z,53.20
2018-01-23T09:45:22.627Z,49.23
2018-01-23T09:47:49.107Z,68.10
2018-01-23T09:50:16.291Z,69.03
2018-01-23T09:52:43.122Z,51.57
2018-01-23T09:55:11.168Z,62.67
2018-01-23T09:57:38.965Z,61.33
2018-01-23T10:00:05.468Z,60.83
2018-01-23T10:02:33.244Z,64.80
2018-01-23T10:05:01.240Z,60.23
2018-01-23T10:07:27.695Z,63.20
2018-01-23T10:09:54.727Z,57.30
2018-01-23T10:12:21.523Z,63.87
2018-01-23T10:14:47.921Z,63.13
2018-01-23T10:17:16.252Z,69.90
2018-01-23T10:19:42.791Z,50.03
2018-01-23T10:22:09.128Z,60.73
2018-01-23T10:24:35.542Z,71.23
2018-01-23T10:27:02.339Z,50.07
2018-01-23T10:29:29.443Z,48.97
2018-01-23T10:31:55.867Z,48.40
2018-01-23T10:34:22.728Z,54.47
2018-01-23T10:36:49.089Z,43.70
2018-01-23T10:39:15.492Z,58.60
2018-01-23T10:41:42.621Z,39.63
2018-01-23T10:44:09.054Z,52.20
2018-01-23T10:46:36.205Z,54.53
2018-01-23T10:49:03.121Z,49.60
2018-01-23T10:51:29.894Z,53.67
2018-01-23T10:53:57.653Z,51.63
2018-01-23T10:56:24.145Z,59.43
2018-01-23T10:58:50.677Z,56.17
2018-01-23T11:01:17.902Z,42.83
2018-01-23T11:03:44.748Z,63.00
2018-01-23T11:06:12.128Z,47.30
2018-01-23T11:08:39.362Z,51.13
2018-01-23T11:11:06.645Z,59.20
2018-01-23T11:13:32.992Z,55.90
2018-01-23T11:16:00.723Z,52.80
2018-01-23T11:18:27.254Z,59.40
2018-01-23T11:20:53.664Z,54.57
2018-01-23T11:23:21.564Z,50.57
2018-01-23T11:25:48.185Z,57.90
2018-01-23T11:28:14.623Z,81.07
2018-01-23T11:30:41.132Z,43.83
2018-01-23T11:33:08.348Z,52.97
2018-01-23T11:35:35.938Z,39.80
2018-01-23T11:38:02.361Z,53.70
2018-01-23T11:40:29.352Z,57.10
2018-01-23T11:42:56.924Z,33.60
2018-01-23T11:45:23.351Z,56.77
2018-01-23T11:47:51.303Z,59.00
2018-01-23T11:50:18.104Z,57.83
2018-01-23T11:52:44.905Z,65.17
2018-01-23T11:55:12.844Z,60.63
2018-01-23T11:57:40.105Z,62.40
2018-01-23T12:00:06.744Z,68.07
2018-01-23T12:02:34.875Z,62.13
2018-01-23T12:05:02.091Z,58.20
2018-01-23T12:07:28.577Z,50.77
2018-01-23T12:09:54.961Z,63.10
2018-01-23T12:12:21.844Z,79.70
2018-01-23T12:14:48.643Z,64.33
2018-01-23T12:17:15.205Z,76.23
2018-01-23T12:19:42.568Z,55.73
2018-01-23T12:22:08.957Z,65.97
2018-01-23T12:24:35.986Z,58.10
2018-01-23T12:27:04.346Z,54.37
2018-01-23T12:29:30.891Z,78.47
2018-01-23T12:31:57.334Z,75.07
2018-01-23T12:34:23.972Z,88.87
2018-01-23T12:36:50.817Z,88.53
2018-01-23T12:39:17.503Z,47.57
2018-01-23T12:41:44.496Z,55.97
2018-01-23T12:44:12.163Z,76.50
2018-01-23T12:46:38.746Z,64.87
2018-01-23T12:49:06.074Z,88.37
2018-01-23T12:51:33.283Z,227.60
2018-01-23T12:54:00.024Z,62.63
2018-01-23T12:56:28.066Z,71.63
2018-01-23T12:58:55.762Z,70.07
2018-01-23T13:01:23.769Z,64.33
2018-01-23T13:03:50.278Z,81.73
2018-01-23T13:06:17.098Z,51.90
2018-01-23T13:08:44.838Z,66.20
2018-01-23T13:11:11.308Z,57.43
2018-01-23T13:13:37.742Z,70.70
2018-01-23T13:16:04.813Z,58.40
2018-01-23T13:18:32.348Z,84.23
2018-01-23T13:21:00.098Z,66.20
2018-01-23T13:23:26.606Z,65.03
2018-01-23T13:25:53.136Z,79.97
2018-01-23T13:28:20.740Z,68.83
2018-01-23T13:30:48.050Z,53.67
2018-01-23T13:33:14.975Z,51.17
2018-01-23T13:35:41.682Z,79.10
2018-01-23T13:38:08.241Z,75.60
2018-01-23T13:40:34.812Z,82.00
2018-01-23T13:43:02.247Z,86.23
2018-01-23T13:45:29.254Z,72.40
2018-01-23T13:47:55.789Z,72.00
2018-01-23T13:50:22.211Z,91.30
2018-01-23T13:52:48.690Z,96.37
2018-01-23T13:55:15.859Z,86.20
2018-01-23T13:57:42.340Z,83.33
2018-01-23T14:00:09.316Z,98.10
2018-01-23T14:02:36.089Z,92.33
2018-01-23T14:05:03.315Z,99.87
2018-01-23T14:07:29.770Z,97.07
2018-01-23T14:09:57.916Z,97.60
2018-01-23T14:12:26.095Z,108.83
2018-01-23T14:14:53.033Z,111.10
2018-01-23T14:17:19.928Z,104.67
2018-01-23T14:19:47.220Z,140.00
2018-01-23T14:22:15.383Z,99.63
2018-01-23T14:24:42.657Z,120.60
2018-01-23T14:27:10.435Z,114.27
2018-01-23T14:29:37.380Z,125.33
2018-01-23T14:32:04.986Z,100.33
2018-01-23T14:34:33.276Z,120.77
2018-01-23T14:36:59.842Z,131.07
2018-01-23T14:39:27.066Z,133.23
2018-01-23T14:41:53.909Z,141.83
2018-01-23T14:44:21.148Z,118.30
2018-01-23T14:46:47.593Z,116.10
2018-01-23T14:49:14.213Z,104.57
2018-01-23T14:51:40.785Z,119.13
2018-01-23T14:54:08.992Z,129.77
2018-01-23T14:56:36.674Z,111.77
2018-01-23T14:59:03.937Z,149.80
2018-01-23T15:01:31.334Z,121.03
2018-01-23T15:03:57.911Z,95.50
2018-01-23T15:06:25.359Z,85.63
2018-01-23T15:08:51.748Z,117.97
2018-01-23T15:11:19.499Z,175.60
2018-01-23T15:13:48.050Z,172.43
2018-01-23T15:16:16.744Z,130.57
2018-01-23T15:18:44.057Z,127.77
2018-01-23T15:21:12.241Z,148.47
2018-01-23T15:23:39.243Z,153.50
2018-01-23T15:26:07.009Z,123.10
2018-01-23T15:28:34.188Z,98.80
2018-01-23T15:31:00.809Z,104.20
2018-01-23T15:33:27.813Z,97.87
2018-01-23T15:35:55.648Z,101.03
2018-01-23T15:38:23.546Z,120.50
2018-01-23T15:40:50.443Z,122.03
2018-01-23T15:43:18.129Z,126.37
2018-01-23T15:45:45.057Z,147.43
2018-01-23T15:48:11.941Z,105.13
2018-01-23T15:50:38.514Z,126.30
2018-01-23T15:53:05.828Z,119.67
2018-01-23T15:55:32.550Z,114.40
2018-01-23T15:58:00.051Z,132.07
2018-01-23T16:00:26.491Z,119.17
2018-01-23T16:02:54.373Z,99.37
2018-01-23T16:05:23.267Z,122.67
2018-01-23T16:07:49.757Z,151.20
2018-01-23T16:10:17.361Z,111.83
2018-01-23T16:12:43.977Z,165.63
2018-01-23T16:15:12.029Z,154.57
2018-01-23T16:17:38.807Z,139.67
2018-01-23T16:20:07.113Z,146.57
2018-01-23T16:22:33.670Z,143.87
2018-01-23T16:25:00.620Z,156.27
2018-01-23T16:27:27.142Z,152.03
2018-01-23T16:29:54.073Z,154.37
2018-01-23T16:32:21.401Z,178.67
2018-01-23T16:34:48.577Z,132.67
2018-01-23T16:37:15.771Z,144.23
2018-01-23T16:39:43.383Z,181.87
2018-01-23T16:42:09.774Z,118.90
2018-01-23T16:44:36.582Z,177.00
2018-01-23T16:47:03.412Z,141.47
2018-01-23T16:49:30.633Z,123.17
2018-01-23T16:51:57.153Z,167.20
2018-01-23T16:54:24.079Z,149.77
2018-01-23T16:56:50.495Z,149.17
2018-01-23T16:59:18.026Z,138.93
2018-01-23T17:01:45.955Z,143.57
2018-01-23T17:04:13.203Z,148.37
2018-01-23T17:06:40.106Z,158.50
2018-01-23T17:09:08.025Z,162.93
2018-01-23T17:11:34.522Z,193.23
2018-01-23T17:14:01.824Z,140.37
2018-01-23T17:16:28.618Z,144.53
2018-01-23T17:18:56.013Z,143.93
2018-01-23T17:21:23.372Z,196.53
2018-01-23T17:23:49.901Z,147.10
2018-01-23T17:26:16.539Z,144.20
2018-01-23T17:28:42.953Z,154.00
2018-01-23T17:31:10.225Z,169.97
2018-01-23T17:33:36.704Z,138.00
2018-01-23T17:36:04.961Z,145.67
2018-01-23T17:38:32.134Z,169.17
2018-01-23T17:40:58.635Z,169.93
2018-01-23T17:43:25.786Z,164.20
2018-01-23T17:45:52.237Z,124.23
2018-01-23T17:48:18.730Z,131.13
2018-01-23T17:50:47.248Z,123.57
2018-01-23T17:53:14.389Z,156.53
2018-01-23T17:55:41.913Z,133.27
2018-01-23T17:58:10.009Z,141.77
2018-01-23T18:00:37.060Z,128.67
2018-01-23T18:03:03.922Z,121.97
2018-01-23T18:05:30.386Z,143.87
2018-01-23T18:07:57.386Z,144.57
2018-01-23T18:10:25.224Z,134.00
2018-01-23T18:12:53.032Z,122.87
2018-01-23T18:15:19.760Z,139.23
2018-01-23T18:17:47.840Z,158.70
2018-01-23T18:20:15.026Z,118.33
2018-01-23T18:22:42.645Z,141.23
2018-01-23T18:25:10.318Z,136.20
2018-01-23T18:27:36.970Z,122.00
2018-01-23T18:30:03.462Z,124.83
2018-01-23T18:32:31.426Z,145.03
2018-01-23T18:34:58.114Z,116.17
2018-01-23T18:37:25.489Z,115.40
2018-01-23T18:39:51.928Z,123.83
2018-01-23T18:42:18.433Z,126.10
2018-01-23T18:44:44.901Z,108.63
2018-01-23T18:47:11.372Z,122.43
2018-01-23T18:49:37.771Z,111.47
2018-01-23T18:52:04.251Z,132.77
2018-01-23T18:54:31.158Z,129.13
2018-01-23T18:56:58.651Z,124.33
2018-01-23T18:59:25.192Z,106.50
2018-01-23T19:01:52.474Z,104.53
2018-01-23T19:04:19.134Z,92.13
2018-01-23T19:06:46.118Z,101.53
2018-01-23T19:09:12.897Z,76.70
2018-01-23T19:11:39.587Z,106.33
2018-01-23T19:14:07.128Z,102.43
2018-01-23T19:16:34.209Z,92.40
2018-01-23T19:19:01.109Z,90.77
2018-01-23T19:21:27.805Z,75.20
2018-01-23T19:23:56.216Z,85.90
2018-01-23T19:26:24.064Z,97.17
2018-01-23T19:28:50.643Z,77.30
2018-01-23T19:31:18.217Z,88.50
2018-01-23T19:33:44.713Z,81.80
2018-01-23T19:36:12.017Z,71.13
2018-01-23T19:38:39.052Z,79.17
2018-01-23T19:41:06.246Z,67.37
2018-01-23T19:43:33.815Z,74.53
2018-01-23T19:46:00.572Z,75.67
2018-01-23T19:48:27.351Z,75.97
2018-01-23T19:50:55.466Z,74.43
2018-01-23T19:53:23.797Z,75.70
2018-01-23T19:55:52.290Z,58.30
2018-01-23T19:58:19.593Z,61.53
2018-01-23T20:00:46.248Z,70.83
2018-01-23T20:03:13.650Z,60.40
2018-01-23T20:05:40.284Z,55.07
2018-01-23T20:08:07.830Z,40.97
2018-01-23T20:10:36.625Z,80.00
2018-01-23T20:13:03.819Z,70.47
2018-01-23T20:15:31.252Z,55.83
2018-01-23T20:17:58.518Z,53.37
2018-01-23T20:20:25.150Z,73.37
2018-01-23T20:22:53.715Z,73.80
2018-01-23T20:25:21.188Z,52.77
2018-01-23T20:27:48.229Z,73.93
2018-01-23T20:30:15.248Z,60.80
2018-01-23T20:32:42.235Z,70.53
2018-01-23T20:35:08.767Z,64.67
2018-01-23T20:37:35.671Z,81.67
2018-01-23T20:40:03.110Z,61.57
2018-01-23T20:42:30.930Z,50.63
2018-01-23T20:44:57.414Z,47.93
2018-01-23T20:47:24.113Z,55.27
2018-01-23T20:49:50.558Z,49.07
2018-01-23T20:52:17.376Z,54.00
2018-01-23T20:54:44.600Z,42.83
2018-01-23T20:57:12.184Z,51.60
2018-01-23T20:59:38.676Z,54.37
2018-01-23T21:02:06.720Z,47.83
2018-01-23T21:04:33.181Z,38.00
2018-01-23T21:07:06.675Z,47.60
2018-01-23T21:09:33.179Z,34.60
2018-01-23T21:12:00.335Z,40.63
2018-01-23T21:14:27.584Z,57.03
2018-01-23T21:16:54.448Z,44.40
2018-01-23T21:19:21.038Z,45.70
2018-01-23T21:21:49.117Z,47.80
2018-01-23T21:24:16.273Z,48.53
2018-01-23T21:26:43.266Z,42.20
2018-01-23T21:29:10.085Z,47.60
2018-01-23T21:31:36.525Z,44.90
2018-01-23T21:34:02.977Z,46.90
2018-01-23T21:36:29.496Z,44.07
2018-01-23T21:38:56.156Z,29.43
2018-01-23T21:41:23.739Z,37.53
2018-01-23T21:43:50.212Z,44.10
2018-01-23T21:46:16.746Z,31.90
2018-01-23T21:48:43.345Z,27.23
2018-01-23T21:51:10.175Z,34.03
2018-01-23T21:53:37.064Z,37.30
2018-01-23T21:56:03.907Z,31.17
2018-01-23T21:58:30.373Z,17.90
2018-01-23T22:00:57.286Z,25.10
2018-01-23T22:03:24.166Z,25.83
2018-01-23T22:05:52.109Z,21.60
2018-01-23T22:08:18.683Z,22.93
2018-01-23T22:10:46.238Z,19.50
2018-01-23T22:13:13.119Z,20.83
2018-01-23T22:15:39.572Z,21.50
2018-01-23T22:18:06.013Z,14.57
2018-01-23T22:20:32.505Z,18.40
2018-01-23T22:22:59.393Z,25.87
2018-01-23T22:25:25.855Z,25.53
2018-01-23T22:27:53.215Z,19.23
2018-01-23T22:30:19.723Z,21.17
2018-01-23T22:32:47.037Z,30.43
2018-01-23T22:35:13.471Z,22.87
2018-01-23T22:37:40.580Z,25.10
2018-01-23T22:40:07.780Z,19.87
2018-01-23T22:42:34.537Z,14.17
2018-01-23T22:45:00.972Z,14.30
2018-01-23T22:47:27.375Z,15.27
2018-01-23T22:49:53.760Z,17.80
2018-01-23T22:52:20.234Z,17.27
2018-01-23T22:54:47.323Z,14.83
2018-01-23T22:57:15.106Z,14.43
2018-01-23T22:59:41.514Z,11.77
2018-01-23T23:02:07.947Z,16.53
2018-01-23T23:04:41.287Z,12.13
2018-01-23T23:07:07.678Z,13.87
2018-01-23T23:09:34.145Z,17.83
2018-01-23T23:12:00.509Z,13.07
2018-01-23T23:14:26.947Z,11.30
2018-01-23T23:16:53.311Z,18.33
2018-01-23T23:19:19.676Z,21.30
2018-01-23T23:21:46.063Z,14.10
2018-01-23T23:24:13.155Z,12.20
2018-01-23T23:26:40.324Z,12.93
2018-01-23T23:29:07.474Z,19.30
2018-01-23T23:31:33.873Z,7.40
2018-01-23T23:34:00.391Z,13.07
2018-01-23T23:36:26.829Z,11.47
2018-01-23T23:38:53.275Z,14.50
2018-01-23T23:41:19.792Z,11.10
2018-01-23T23:43:46.404Z,10.60
2018-01-23T23:46:12.938Z,18.03
2018-01-23T23:48:39.571Z,18.90
2018-01-23T23:51:07.237Z,25.63
2018-01-23T23:53:33.721Z,15.73
2018-01-23T23:56:00.229Z,17.63
2018-01-23T23:58:26.700Z,26.73
